Time;durP1;ratioP1;P1;durP2;ratioP2;P2;SDS_P1;SDS_P2;PMS_P1;PMS_P2;Temp;Humidity;BMP_temperature;BMP_pressure;BME280_temperature;BME280_humidity;BME280_pressure;Samples;Min_cycle;Max_cycle;Signal;HPM_P1;HPM_P2
2021/04/10 00:00:10;;;;;;;11.02;9.07;;;;;;;9.00;50.93;100752.09;699178;28;21532;-54
2021/04/10 00:00:31;;;;;;;11.10;9.10;;;;;;;8.99;51.14;100753.94;699163;28;40529;-52
2021/04/10 00:00:52;;;;;;;11.95;9.00;;;;;;;9.00;50.93;100747.53;701148;28;24041;-52
2021/04/10 00:01:16;;;;;;;10.98;9.23;;;;;;;9.00;51.08;100752.09;701676;28;1665;-52
2021/04/10 00:01:38;;;;;;;11.70;9.18;;;;;;;9.00;51.20;100749.41;699814;28;46391;-50
2021/04/10 00:01:59;;;;;;;13.32;9.13;;;;;;;9.00;50.93;100752.94;697513;28;39103;-52
2021/04/10 00:02:21;;;;;;;12.75;9.50;;;;;;;8.99;50.80;100740.47;698723;28;2716;-52
2021/04/10 00:02:42;;;;;;;13.13;9.85;;;;;;;9.00;50.85;100752.94;697343;28;45352;-59
2021/04/10 00:03:05;;;;;;;12.30;9.45;;;;;;;9.00;50.59;100752.94;699339;28;20962;-50
2021/04/10 00:03:26;;;;;;;13.40;9.27;;;;;;;9.01;50.55;100741.16;696838;28;69539;-55
2021/04/10 00:03:47;;;;;;;12.63;9.40;;;;;;;9.01;50.80;100751.94;699069;28;9883;-50
2021/04/10 00:04:09;;;;;;;12.82;9.13;;;;;;;8.99;50.72;100750.41;699221;28;14816;-56
2021/04/10 00:04:30;;;;;;;12.55;9.50;;;;;;;8.99;50.83;100753.94;699390;28;12939;-57
2021/04/10 00:04:51;;;;;;;12.60;9.57;;;;;;;9.00;50.77;100744.84;698891;28;17932;-55
2021/04/10 00:05:13;;;;;;;15.85;10.95;;;;;;;8.99;50.57;100743.16;699129;28;20169;-55
2021/04/10 00:05:34;;;;;;;17.25;11.57;;;;;;;9.01;50.73;100741.16;698470;28;44198;-53
2021/04/10 00:05:55;;;;;;;20.02;12.00;;;;;;;9.02;50.45;100748.22;698086;28;22435;-53
2021/04/10 00:06:17;;;;;;;17.15;11.57;;;;;;;9.03;50.56;100746.38;698223;28;23459;-54
2021/04/10 00:06:38;;;;;;;15.02;11.10;;;;;;;9.05;50.12;100748.91;698017;28;44390;-54
2021/04/10 00:06:59;;;;;;;15.35;11.18;;;;;;;9.03;50.08;100746.38;698479;28;20425;-52
2021/04/10 00:07:20;;;;;;;15.55;11.30;;;;;;;9.02;50.16;100750.06;699446;28;1375;-54
2021/04/10 00:07:43;;;;;;;17.48;11.63;;;;;;;9.03;50.17;100749.06;696079;28;12571;-53
2021/04/10 00:08:08;;;;;;;17.48;11.70;;;;;;;9.04;50.30;100752.59;694521;28;61841;-55
2021/04/10 00:08:29;;;;;;;16.42;11.43;;;;;;;9.02;50.25;100752.78;695394;28;23396;-60
2021/04/10 00:08:50;;;;;;;16.35;11.13;;;;;;;9.04;50.45;100752.59;693478;28;1609;-52
2021/04/10 00:09:13;;;;;;;19.83;12.10;;;;;;;9.02;50.24;100748.22;695590;28;960;-57
2021/04/10 00:09:35;;;;;;;24.05;13.63;;;;;;;9.04;50.36;100749.91;696451;28;1611;-50
2021/04/10 00:09:56;;;;;;;24.88;14.15;;;;;;;9.05;50.11;100746.22;698139;28;873;-52
2021/04/10 00:10:20;;;;;;;19.95;12.90;;;;;;;9.04;50.06;100742.66;697733;28;2006;-54
2021/04/10 00:10:41;;;;;;;18.23;12.18;;;;;;;9.04;50.02;100750.75;697726;28;25797;-52
2021/04/10 00:11:04;;;;;;;15.52;11.63;;;;;;;9.05;50.11;100738.97;699417;28;14163;-54
2021/04/10 00:11:25;;;;;;;18.75;12.07;;;;;;;9.05;50.24;100743.53;700261;28;940;-50
2021/04/10 00:11:46;;;;;;;21.75;13.35;;;;;;;9.05;50.30;100738.97;699086;28;21516;-53
2021/04/10 00:12:09;;;;;;;20.27;13.32;;;;;;;9.07;50.17;100746.88;698807;28;24420;-53
2021/04/10 00:12:30;;;;;;;19.38;12.95;;;;;;;9.07;50.20;100746.88;697336;28;69489;-56
2021/04/10 00:12:51;;;;;;;18.10;12.27;;;;;;;9.06;50.15;100742.50;697695;28;36969;-54
2021/04/10 00:13:12;;;;;;;19.65;11.95;;;;;;;9.05;50.26;100733.56;697781;28;46036;-55
2021/04/10 00:13:34;;;;;;;21.77;12.85;;;;;;;9.06;50.15;100742.50;698772;28;21537;-55
2021/04/10 00:13:55;;;;;;;22.20;13.20;;;;;;;9.07;50.03;100744.19;699252;28;22452;-52
2021/04/10 00:14:16;;;;;;;21.65;13.93;;;;;;;9.07;50.07;100745.03;698496;28;45277;-55
2021/04/10 00:14:37;;;;;;;20.45;13.45;;;;;;;9.07;50.24;100745.03;698927;28;18410;-54
2021/04/10 00:14:58;;;;;;;20.27;13.45;;;;;;;9.08;50.04;100751.28;698883;28;23419;-58
2021/04/10 00:15:30;;;;;;;21.15;13.80;;;;;;;9.07;50.05;100742.31;696186;28;98904;-52
2021/04/10 00:15:51;;;;;;;20.67;13.68;;;;;;;9.07;49.98;100741.50;702184;28;1364;-52
2021/04/10 00:16:13;;;;;;;21.80;13.00;;;;;;;9.06;49.85;100740.66;702101;28;1772;-53
2021/04/10 00:16:35;;;;;;;23.00;14.20;;;;;;;9.05;50.00;100740.81;701674;28;23453;-55
2021/04/10 00:16:56;;;;;;;19.88;12.95;;;;;;;9.05;50.49;100749.75;700954;28;35612;-52
2021/04/10 00:17:18;;;;;;;19.92;12.45;;;;;;;9.05;50.48;100755.13;702050;28;5304;-53
2021/04/10 00:17:39;;;;;;;22.15;13.02;;;;;;;9.05;50.43;100746.22;701272;28;9636;-55
2021/04/10 00:18:00;;;;;;;22.40;13.27;;;;;;;9.06;50.35;100750.56;698765;28;22395;-54
2021/04/10 00:18:21;;;;;;;26.25;14.30;;;;;;;9.06;50.25;100745.19;699580;28;17546;-55
2021/04/10 00:18:42;;;;;;;26.20;15.38;;;;;;;9.06;50.24;100739.81;699336;28;18702;-54
2021/04/10 00:19:04;;;;;;;23.15;14.68;;;;;;;9.06;50.04;100737.09;699344;28;23422;-53
2021/04/10 00:19:25;;;;;;;24.10;14.77;;;;;;;9.06;50.08;100746.06;698334;28;46373;-52
2021/04/10 00:19:46;;;;;;;26.35;15.05;;;;;;;9.06;50.08;100745.19;699604;28;5451;-56
2021/04/10 00:20:11;;;;;;;22.67;13.73;;;;;;;9.05;50.01;100746.22;699713;28;15079;-57
2021/04/10 00:20:32;;;;;;;25.10;15.00;;;;;;;9.04;50.27;100744.53;695532;28;115441;-52
2021/04/10 00:20:54;;;;;;;25.27;14.88;;;;;;;9.04;50.27;100741.81;698844;28;21454;-52
2021/04/10 00:21:15;;;;;;;26.70;15.50;;;;;;;9.04;50.24;100748.03;699151;28;21545;-54
2021/04/10 00:21:36;;;;;;;25.98;15.63;;;;;;;9.04;49.87;100741.81;699451;28;7814;-54
2021/04/10 00:21:57;;;;;;;23.08;13.95;;;;;;;9.04;50.08;100747.22;699368;28;22416;-53
2021/04/10 00:22:18;;;;;;;25.60;14.73;;;;;;;9.04;49.97;100741.81;697686;28;47321;-53
2021/04/10 00:22:39;;;;;;;26.33;15.20;;;;;;;9.03;50.16;100743.69;699742;28;9495;-53
2021/04/10 00:23:01;;;;;;;24.75;15.32;;;;;;;9.04;50.01;100742.66;698926;28;24504;-54
2021/04/10 00:23:23;;;;;;;21.90;14.73;;;;;;;9.04;50.18;100742.66;698299;28;46290;-55
2021/04/10 00:23:46;;;;;;;23.73;14.80;;;;;;;9.02;50.15;100745.53;699378;28;1474;-52
2021/04/10 00:24:08;;;;;;;22.13;14.20;;;;;;;9.02;50.13;100744.69;698874;28;24047;-53
2021/04/10 00:24:29;;;;;;;23.40;14.23;;;;;;;9.01;50.37;100751.06;697479;28;67551;-53
2021/04/10 00:24:51;;;;;;;20.33;13.40;;;;;;;8.99;50.60;100747.72;697949;28;43974;-49
2021/04/10 00:25:13;;;;;;;17.77;12.43;;;;;;;8.97;50.63;100750.56;698160;28;46419;-54
2021/04/10 00:25:34;;;;;;;16.20;11.95;;;;;;;8.95;51.05;100746.34;699887;28;958;-56
2021/04/10 00:25:55;;;;;;;16.95;11.50;;;;;;;8.95;51.21;100747.22;698567;28;23390;-54
2021/04/10 00:26:17;;;;;;;19.45;11.98;;;;;;;8.94;51.55;100750.06;699821;28;1957;-55
2021/04/10 00:26:38;;;;;;;19.63;11.77;;;;;;;8.93;51.23;100751.91;698650;28;31765;-53
2021/04/10 00:26:59;;;;;;;18.50;12.68;;;;;;;8.93;51.32;100751.06;698829;28;22187;-54
2021/04/10 00:27:21;;;;;;;20.48;13.25;;;;;;;8.93;51.31;100751.06;699829;28;874;-56
2021/04/10 00:27:43;;;;;;;19.45;12.95;;;;;;;8.92;51.02;100749.38;700022;28;881;-58
2021/04/10 00:28:05;;;;;;;18.67;12.52;;;;;;;8.90;51.32;100748.72;699363;28;1428;-55
2021/04/10 00:28:29;;;;;;;19.83;12.68;;;;;;;8.89;51.34;100749.75;696857;28;93349;-57
2021/04/10 00:28:51;;;;;;;23.20;14.05;;;;;;;8.90;51.08;100749.53;699644;28;900;-53
2021/04/10 00:29:13;;;;;;;25.73;16.00;;;;;;;8.89;51.03;100750.56;700149;28;867;-55
2021/04/10 00:29:34;;;;;;;26.63;16.02;;;;;;;8.89;50.99;100745.19;698291;28;46291;-52
2021/04/10 00:29:55;;;;;;;26.35;15.65;;;;;;;8.89;51.03;100747.88;699136;28;22185;-53
2021/04/10 00:30:17;;;;;;;25.80;16.15;;;;;;;8.89;50.78;100750.56;699270;28;23319;-52
2021/04/10 00:30:38;;;;;;;29.15;16.63;;;;;;;8.88;50.84;100748.03;699258;28;22537;-56
2021/04/10 00:31:06;;;;;;;31.65;16.38;;;;;;;8.89;50.62;100747.88;697838;28;46352;-56
2021/04/10 00:31:27;;;;;;;27.70;16.50;;;;;;;8.89;50.54;100750.56;695783;28;102686;-54
2021/04/10 00:31:48;;;;;;;30.85;16.95;;;;;;;8.88;50.83;100748.88;699700;28;14186;-54
2021/04/10 00:32:09;;;;;;;26.10;15.82;;;;;;;8.86;50.77;100745.50;699098;28;21542;-56
2021/04/10 00:32:30;;;;;;;27.95;16.02;;;;;;;8.84;50.94;100744.84;698474;28;46406;-55
2021/04/10 00:32:52;;;;;;;27.80;16.38;;;;;;;8.88;51.10;100743.47;699950;28;20929;-55
2021/04/10 00:33:13;;;;;;;25.80;15.40;;;;;;;8.87;51.09;100743.66;699765;28;22396;-56
2021/04/10 00:33:36;;;;;;;30.77;17.27;;;;;;;8.87;50.92;100749.91;700130;28;15470;-54
2021/04/10 00:33:57;;;;;;;31.95;17.77;;;;;;;8.86;50.79;100745.50;698141;28;69789;-51
2021/04/10 00:34:18;;;;;;;28.95;16.98;;;;;;;8.84;51.23;100751.06;699413;28;21490;-51
2021/04/10 00:34:39;;;;;;;27.00;16.48;;;;;;;8.84;51.08;100752.94;699314;28;18832;-50
2021/04/10 00:35:00;;;;;;;28.92;16.30;;;;;;;8.84;51.45;100750.22;700826;28;1573;-54
2021/04/10 00:35:22;;;;;;;27.85;15.27;;;;;;;8.82;51.38;100747.69;695827;28;46399;-55
2021/04/10 00:35:43;;;;;;;27.95;15.48;;;;;;;8.83;51.19;100752.06;697100;28;963;-53
2021/04/10 00:36:07;;;;;;;25.05;15.38;;;;;;;8.83;51.21;100745.84;697709;28;1035;-50
2021/04/10 00:36:34;;;;;;;26.40;15.45;;;;;;;8.82;51.31;100747.69;695561;28;60555;-51
2021/04/10 00:36:55;;;;;;;27.25;15.30;;;;;;;8.82;51.44;100750.41;698852;28;8590;-52
2021/04/10 00:37:17;;;;;;;26.38;15.07;;;;;;;8.82;51.29;100749.53;699830;28;22411;-53
2021/04/10 00:37:39;;;;;;;23.15;14.45;;;;;;;8.81;51.35;100740.63;700061;28;901;-54
2021/04/10 00:38:02;;;;;;;23.45;14.25;;;;;;;8.81;51.44;100740.63;700549;28;873;-54
2021/04/10 00:38:30;;;;;;;26.77;14.45;;;;;;;8.80;51.18;100744.31;697325;28;61052;-55
2021/04/10 00:38:52;;;;;;;22.48;14.10;;;;;;;8.80;51.25;100751.56;700136;28;894;-55
2021/04/10 00:39:14;;;;;;;22.10;14.18;;;;;;;8.79;51.51;100742.66;700554;28;941;-51
2021/04/10 00:39:35;;;;;;;27.75;15.98;;;;;;;8.79;51.45;100741.78;700210;28;850;-54
2021/04/10 00:39:57;;;;;;;29.20;16.75;;;;;;;8.77;51.46;100747.34;700319;28;1601;-52
2021/04/10 00:40:20;;;;;;;29.35;17.20;;;;;;;8.77;51.27;100739.25;700561;28;1038;-56
2021/04/10 00:40:41;;;;;;;35.42;18.65;;;;;;;8.77;51.11;100747.34;700749;28;908;-51
2021/04/10 00:41:04;;;;;;;34.95;19.45;;;;;;;8.76;51.22;100748.38;700217;28;934;-54
2021/04/10 00:41:25;;;;;;;31.38;18.95;;;;;;;8.76;51.14;100745.66;697375;28;70445;-54
2021/04/10 00:41:53;;;;;;;33.50;18.85;;;;;;;8.76;51.09;100748.38;697662;28;61873;-52
2021/04/10 00:42:14;;;;;;;31.48;18.33;;;;;;;8.75;51.27;100749.34;699747;28;4014;-50
2021/04/10 00:42:37;;;;;;;32.22;17.77;;;;;;;8.76;51.12;100747.50;699980;28;1074;-52
2021/04/10 00:42:58;;;;;;;31.23;17.15;;;;;;;8.76;51.03;100742.13;698592;28;45242;-54
2021/04/10 00:43:20;;;;;;;31.45;17.05;;;;;;;8.75;51.30;100743.13;699027;28;13444;-51
2021/04/10 00:43:42;;;;;;;24.75;15.77;;;;;;;8.74;51.23;100741.44;699374;28;14906;-58
2021/04/10 00:44:04;;;;;;;26.92;15.95;;;;;;;8.74;51.17;100747.66;699774;28;14623;-52
2021/04/10 00:44:26;;;;;;;30.13;17.02;;;;;;;8.74;51.04;100741.44;700218;28;1319;-52
2021/04/10 00:44:48;;;;;;;25.20;15.38;;;;;;;8.73;51.29;100737.91;698819;28;1406;-55
2021/04/10 00:45:10;;;;;;;24.63;14.93;;;;;;;8.76;51.17;100747.50;698813;28;22241;-56
2021/04/10 00:45:31;;;;;;;26.00;15.73;;;;;;;8.76;51.04;100748.38;698448;28;44246;-53
2021/04/10 00:45:53;;;;;;;25.50;15.10;;;;;;;8.77;50.93;100744.63;697312;28;23644;-51
2021/04/10 00:46:14;;;;;;;24.73;15.05;;;;;;;8.76;51.03;100739.41;698897;28;45375;-51
2021/04/10 00:46:35;;;;;;;20.88;14.30;;;;;;;8.76;50.84;100739.41;697862;28;22392;-53
2021/04/10 00:46:56;;;;;;;21.27;14.13;;;;;;;8.74;50.86;100738.75;699404;28;22414;-53
2021/04/10 00:47:17;;;;;;;21.83;14.23;;;;;;;8.73;50.94;100737.06;698626;28;23469;-49
2021/04/10 00:47:43;;;;;;;21.33;14.05;;;;;;;8.73;50.78;100732.53;698069;28;61561;-53
2021/04/10 00:48:05;;;;;;;21.73;14.27;;;;;;;8.74;50.87;100738.75;700066;28;17615;-51
2021/04/10 00:48:26;;;;;;;22.10;14.15;;;;;;;8.74;50.91;100731.50;698724;28;45289;-53
2021/04/10 00:48:48;;;;;;;21.85;14.23;;;;;;;8.75;50.82;100735.06;700352;28;1355;-57
2021/04/10 00:49:09;;;;;;;23.20;15.10;;;;;;;8.76;50.86;100734.03;698252;28;46323;-55
2021/04/10 00:49:30;;;;;;;23.58;14.40;;;;;;;8.77;50.71;100735.72;698203;28;23444;-52
2021/04/10 00:49:51;;;;;;;24.70;14.32;;;;;;;8.77;50.97;100738.41;699161;28;23559;-49
2021/04/10 00:50:12;;;;;;;22.00;14.18;;;;;;;8.75;50.98;100730.50;699659;28;13313;-53
2021/04/10 00:50:34;;;;;;;21.25;13.90;;;;;;;8.76;50.86;100739.41;698439;28;44368;-51
2021/04/10 00:50:55;;;;;;;23.02;14.70;;;;;;;8.76;50.78;100734.03;698756;28;22479;-55
2021/04/10 00:51:16;;;;;;;23.85;14.75;;;;;;;8.77;50.92;100733.03;699125;28;22405;-52
2021/04/10 00:51:38;;;;;;;24.25;15.18;;;;;;;8.74;50.99;100731.50;698776;28;21327;-51
2021/04/10 00:51:59;;;;;;;22.63;14.75;;;;;;;8.73;51.33;100734.34;696391;28;46414;-54
2021/04/10 00:52:21;;;;;;;21.15;14.55;;;;;;;8.73;51.23;100737.06;699051;28;4051;-51
2021/04/10 00:52:42;;;;;;;24.45;15.43;;;;;;;8.73;51.11;100735.22;699157;28;23415;-55
2021/04/10 00:53:04;;;;;;;26.70;15.77;;;;;;;8.75;51.18;100732.38;696661;28;23341;-54
2021/04/10 00:53:28;;;;;;;27.58;16.17;;;;;;;8.76;51.04;100739.41;696125;28;9830;-54
2021/04/10 00:53:49;;;;;;;23.63;15.40;;;;;;;8.74;51.18;100739.59;695170;28;91960;-56
2021/04/10 00:54:10;;;;;;;27.92;15.60;;;;;;;8.73;50.92;100740.63;696974;28;23393;-56
2021/04/10 00:54:31;;;;;;;29.35;16.05;;;;;;;8.73;51.09;100732.53;696749;28;23543;-55
2021/04/10 00:54:53;;;;;;;27.90;15.95;;;;;;;8.74;50.80;100738.75;697019;28;16656;-55
2021/04/10 00:55:16;;;;;;;23.20;15.23;;;;;;;8.73;50.69;100729.84;698588;28;1427;-51
2021/04/10 00:55:38;;;;;;;22.83;14.65;;;;;;;8.72;50.72;100736.22;696501;28;43073;-54
2021/04/10 00:56:03;;;;;;;21.67;14.13;;;;;;;8.70;50.89;100735.56;698254;28;46363;-56
2021/04/10 00:56:25;;;;;;;21.00;13.88;;;;;;;8.69;50.92;100735.72;697375;28;115965;-52
2021/04/10 00:56:46;;;;;;;23.48;13.65;;;;;;;8.68;50.77;100725.94;699940;28;44384;-57
2021/04/10 00:57:08;;;;;;;21.50;13.18;;;;;;;8.66;51.01;100732.31;698458;28;1416;-56
2021/04/10 00:57:30;;;;;;;19.42;12.90;;;;;;;8.66;51.04;100732.31;697793;28;22460;-55
2021/04/10 00:57:52;;;;;;;19.50;12.23;;;;;;;8.65;50.83;100730.66;699943;28;1165;-55
2021/04/10 00:58:14;;;;;;;20.33;12.80;;;;;;;8.64;51.10;100734.34;697440;28;1105;-53
2021/04/10 00:58:36;;;;;;;17.17;11.95;;;;;;;8.66;50.77;100728.81;691870;28;69562;-56
2021/04/10 00:58:58;;;;;;;19.70;12.52;;;;;;;8.66;51.15;100734.19;691721;28;45352;-56
2021/04/10 00:59:19;;;;;;;20.77;12.85;;;;;;;8.65;51.46;100724.41;692590;28;23548;-54
2021/04/10 00:59:40;;;;;;;18.83;12.48;;;;;;;8.65;51.51;100729.81;689795;28;22358;-56
2021/04/10 01:00:03;;;;;;;21.63;13.50;;;;;;;8.63;51.87;100724.56;691208;28;4594;-50
2021/04/10 01:00:24;;;;;;;21.17;13.43;;;;;;;8.61;52.06;100729.28;687714;28;69183;-52
2021/04/10 01:00:45;;;;;;;17.42;12.48;;;;;;;8.59;52.30;100720.56;691904;28;6230;-54
2021/04/10 01:01:07;;;;;;;16.40;12.63;;;;;;;8.57;52.43;100722.53;694799;28;21523;-58
2021/04/10 01:01:31;;;;;;;18.63;12.57;;;;;;;8.58;52.10;100726.09;694318;28;113972;-56
2021/04/10 01:01:52;;;;;;;17.30;12.43;;;;;;;8.56;52.10;100728.94;696513;28;23597;-56
2021/04/10 01:02:13;;;;;;;17.83;12.18;;;;;;;8.55;52.29;100721.03;692193;28;23517;-54
2021/04/10 01:02:34;;;;;;;18.05;12.02;;;;;;;8.55;52.31;100729.13;695575;28;23558;-58
2021/04/10 01:02:56;;;;;;;18.95;12.52;;;;;;;8.55;52.48;100729.94;694779;28;45710;-53
2021/04/10 01:03:18;;;;;;;19.90;12.77;;;;;;;8.54;52.46;100736.34;691886;28;45488;-52
2021/04/10 01:03:39;;;;;;;20.40;13.88;;;;;;;8.53;52.61;100740.06;693031;28;22283;-54
2021/04/10 01:04:00;;;;;;;20.35;13.70;;;;;;;8.52;52.46;100732.97;693108;28;20294;-50
2021/04/10 01:04:23;;;;;;;19.85;13.05;;;;;;;8.52;52.65;100737.53;697640;28;1300;-51
2021/04/10 01:04:46;;;;;;;19.77;13.20;;;;;;;8.54;52.39;100738.19;695546;28;59072;-51
2021/04/10 01:05:08;;;;;;;19.98;13.60;;;;;;;8.54;52.49;100738.19;694974;28;21661;-55
2021/04/10 01:05:29;;;;;;;19.02;13.38;;;;;;;8.53;52.62;100737.34;695347;28;40352;-52
2021/04/10 01:05:51;;;;;;;20.13;13.23;;;;;;;8.55;52.57;100734.50;697345;28;1991;-51
2021/04/10 01:06:17;;;;;;;19.60;12.70;;;;;;;8.53;52.66;100736.53;699042;28;38751;-53
2021/04/10 01:06:38;;;;;;;19.02;12.77;;;;;;;8.51;52.79;100735.81;695427;28;69120;-53
2021/04/10 01:06:59;;;;;;;18.33;12.95;;;;;;;8.48;52.89;100740.53;698047;28;14297;-53
2021/04/10 01:07:21;;;;;;;19.73;12.63;;;;;;;8.50;52.70;100740.38;699273;28;1380;-56
2021/04/10 01:07:42;;;;;;;18.63;12.27;;;;;;;8.49;52.83;100735.97;695723;28;44358;-55
2021/04/10 01:08:05;;;;;;;18.25;12.60;;;;;;;8.47;52.85;100732.63;693455;28;22374;-51
2021/04/10 01:08:28;;;;;;;20.88;13.90;;;;;;;8.45;53.18;100735.47;692973;28;67591;-57
2021/04/10 01:08:49;;;;;;;19.20;12.57;;;;;;;8.44;53.20;100731.09;694578;28;69331;-54
2021/04/10 01:09:10;;;;;;;18.30;12.20;;;;;;;8.43;53.05;100732.13;696921;28;23402;-57
2021/04/10 01:09:32;;;;;;;16.17;12.50;;;;;;;8.41;52.96;100728.69;696986;28;22518;-55
2021/04/10 01:09:54;;;;;;;17.58;11.98;;;;;;;8.40;53.06;100727.03;696700;28;45056;-51
2021/04/10 01:10:16;;;;;;;17.38;12.07;;;;;;;8.40;53.01;100723.47;695563;28;46366;-51
2021/04/10 01:10:37;;;;;;;16.90;12.18;;;;;;;8.40;52.87;100723.47;695323;28;46322;-51
2021/04/10 01:11:07;;;;;;;17.67;12.25;;;;;;;8.39;52.97;100728.03;694285;28;1169;-56
2021/04/10 01:11:39;;;;;;;17.30;12.13;;;;;;;8.39;52.87;100721.81;689549;28;58939;-53
2021/04/10 01:12:11;;;;;;;17.38;11.90;;;;;;;8.38;52.84;100720.94;690839;28;101528;-50
2021/04/10 01:12:46;;;;;;;16.40;11.98;;;;;;;8.37;52.78;100719.28;693013;28;80323;-50
2021/04/10 01:13:33;;;;;;;21.65;13.23;;;;;;;8.38;52.64;100722.81;693047;28;134693;-57
2021/04/10 01:13:58;;;;;;;17.92;12.02;;;;;;;8.39;52.73;100722.63;693375;28;148758;-53
2021/04/10 01:14:27;;;;;;;17.20;11.88;;;;;;;8.39;52.55;100728.03;694118;28;138952;-51
2021/04/10 01:14:55;;;;;;;18.25;12.65;;;;;;;8.40;52.14;100718.09;691822;28;132479;-50
2021/04/10 01:15:22;;;;;;;19.40;12.27;;;;;;;8.40;52.28;100724.34;689514;28;135952;-57
2021/04/10 01:15:49;;;;;;;19.30;12.10;;;;;;;8.40;52.07;100727.03;687988;28;136423;-54
2021/04/10 01:16:15;;;;;;;17.73;12.18;;;;;;;8.41;51.85;100725.16;686996;28;135122;-54
2021/04/10 01:16:39;;;;;;;19.35;12.70;;;;;;;8.39;52.03;100727.19;688532;28;137284;-51
2021/04/10 01:17:04;;;;;;;20.45;13.52;;;;;;;8.36;52.14;100725.66;690276;28;115367;-57
2021/04/10 01:17:28;;;;;;;22.55;13.90;;;;;;;8.37;52.22;100721.09;688794;28;115903;-49
2021/04/10 01:17:54;;;;;;;20.17;13.43;;;;;;;8.37;52.39;100721.97;688578;28;92182;-53
2021/04/10 01:18:18;;;;;;;19.40;12.80;;;;;;;8.36;52.40;100730.22;686923;28;114606;-52
2021/04/10 01:18:44;;;;;;;18.38;12.88;;;;;;;8.34;52.39;100724.13;686415;28;115314;-49
2021/04/10 01:19:14;;;;;;;20.85;12.77;;;;;;;8.30;52.36;100727.13;688339;28;136356;-53
2021/04/10 01:19:59;;;;;;;18.40;12.50;;;;;;;8.32;52.54;100726.16;691689;28;137993;-49
2021/04/10 01:20:49;;;;;;;16.40;10.90;;;;;;;8.32;52.14;100718.06;698467;28;60951;-54
2021/04/10 01:21:24;;;;;;;15.52;10.20;;;;;;;8.33;52.22;100725.97;695556;28;131144;-50
2021/04/10 01:21:49;;;;;;;14.73;10.20;;;;;;;8.33;52.15;100725.97;695298;28;137456;-54
2021/04/10 01:22:20;;;;;;;15.38;10.80;;;;;;;8.28;52.30;100717.56;700749;28;61677;-54
2021/04/10 01:23:01;;;;;;;14.85;11.25;;;;;;;8.27;52.43;100721.25;695798;28;81200;-49
2021/04/10 01:24:06;;;;;;;14.15;10.40;;;;;;;8.25;52.46;100725.97;693278;28;129182;-54
2021/04/10 01:24:42;;;;;;;15.52;11.00;;;;;;;8.21;53.05;100724.59;694091;28;62205;-54
2021/04/10 01:25:07;;;;;;;16.13;11.77;;;;;;;8.20;53.13;100722.91;696777;28;62268;-55
2021/04/10 01:25:30;;;;;;;18.10;12.38;;;;;;;8.19;53.21;100727.44;697609;28;69467;-55
2021/04/10 01:26:02;;;;;;;18.88;12.43;;;;;;;8.18;53.17;100725.78;696177;28;69455;-54
2021/04/10 01:26:55;;;;;;;18.85;12.32;;;;;;;8.16;53.42;100738.53;695562;28;135506;-53
2021/04/10 01:27:31;;;;;;;17.90;12.35;;;;;;;8.17;53.35;100734.00;694860;28;158909;-51
2021/04/10 01:27:57;;;;;;;20.65;12.82;;;;;;;8.15;53.36;100738.69;695238;28;136075;-53
2021/04/10 01:28:40;;;;;;;18.75;12.52;;;;;;;8.13;53.78;100736.16;696046;28;61937;-53
2021/04/10 01:29:04;;;;;;;16.85;11.90;;;;;;;8.12;53.67;100729.94;696246;28;61273;-49
2021/04/10 01:29:26;;;;;;;16.83;11.48;;;;;;;8.12;53.62;100731.78;697170;28;69321;-56
2021/04/10 01:29:49;;;;;;;16.67;12.07;;;;;;;8.12;53.68;100729.94;695987;28;45303;-56
2021/04/10 01:30:14;;;;;;;16.10;11.57;;;;;;;8.14;53.71;100728.94;695136;28;65695;-53
2021/04/10 01:30:35;;;;;;;18.58;12.20;;;;;;;8.14;53.91;100728.94;694187;28;93236;-54
2021/04/10 01:30:58;;;;;;;19.20;12.07;;;;;;;8.14;53.99;100731.63;695506;28;46233;-52
2021/04/10 01:31:27;;;;;;;19.88;12.35;;;;;;;8.10;54.00;100721.19;693144;28;61759;-56
2021/04/10 01:31:50;;;;;;;17.85;12.13;;;;;;;8.11;54.04;100727.41;692013;28;106860;-52
2021/04/10 01:32:13;;;;;;;18.95;12.57;;;;;;;8.09;54.08;100727.56;693478;28;75914;-52
2021/04/10 01:32:37;;;;;;;18.58;12.48;;;;;;;8.09;53.90;100722.19;691630;28;37201;-52
2021/04/10 01:33:03;;;;;;;17.13;12.60;;;;;;;8.09;53.87;100724.03;685806;28;137192;-54
2021/04/10 01:33:28;;;;;;;17.23;12.23;;;;;;;8.09;53.81;100724.88;690691;28;116456;-51
2021/04/10 01:33:51;;;;;;;19.65;13.00;;;;;;;8.08;54.04;100728.56;690997;28;102735;-57
2021/04/10 01:34:16;;;;;;;19.08;12.48;;;;;;;8.08;53.91;100730.41;687753;28;91859;-54
2021/04/10 01:34:42;;;;;;;16.90;11.90;;;;;;;8.06;54.04;100725.19;690696;28;38728;-53
2021/04/10 01:35:06;;;;;;;17.60;12.32;;;;;;;8.07;53.97;100728.72;687918;28;115228;-54
2021/04/10 01:35:35;;;;;;;17.35;12.65;;;;;;;8.07;53.84;100728.72;687115;28;61388;-52
2021/04/10 01:35:58;;;;;;;16.85;11.48;;;;;;;8.08;54.04;100731.25;685097;28;109059;-51
2021/04/10 01:36:23;;;;;;;20.20;13.18;;;;;;;8.09;53.84;100738.34;691769;28;69502;-56
2021/04/10 01:36:47;;;;;;;18.67;13.10;;;;;;;8.09;53.83;100737.50;696498;28;39236;-53
2021/04/10 01:37:18;;;;;;;18.50;12.40;;;;;;;8.06;54.16;100727.88;697983;28;61393;-52
2021/04/10 01:37:43;;;;;;;17.98;12.52;;;;;;;8.05;54.08;100733.44;697909;28;46220;-55
2021/04/10 01:38:08;;;;;;;18.23;13.15;;;;;;;8.02;54.19;100731.91;693920;28;134716;-52
2021/04/10 01:38:30;;;;;;;18.83;12.27;;;;;;;8.04;54.09;100734.44;695167;28;104334;-57
2021/04/10 01:38:53;;;;;;;22.75;13.02;;;;;;;8.03;53.96;100730.91;696263;28;66845;-55
2021/04/10 01:39:16;;;;;;;20.67;13.77;;;;;;;8.02;54.03;100734.59;694770;28;23700;-52
2021/04/10 01:39:38;;;;;;;19.23;12.85;;;;;;;8.02;54.04;100731.91;691371;28;43963;-52
2021/04/10 01:40:02;;;;;;;19.75;13.13;;;;;;;8.03;53.77;100738.13;692244;28;55045;-52
2021/04/10 01:40:25;;;;;;;18.63;13.25;;;;;;;8.01;53.92;100737.44;687816;28;115237;-49
2021/04/10 01:40:50;;;;;;;18.85;12.85;;;;;;;7.99;53.92;100734.91;690920;28;69607;-58
2021/04/10 01:41:15;;;;;;;18.45;12.80;;;;;;;7.98;53.79;100740.44;692380;28;92291;-54
2021/04/10 01:41:41;;;;;;;18.08;12.73;;;;;;;7.97;53.83;100736.91;691317;28;79938;-50
2021/04/10 01:42:05;;;;;;;15.80;12.02;;;;;;;7.97;53.93;100738.78;689565;28;117983;-51
2021/04/10 01:42:28;;;;;;;18.88;12.82;;;;;;;7.97;53.75;100736.91;693543;28;44379;-53
2021/04/10 01:42:49;;;;;;;19.33;12.90;;;;;;;7.98;53.75;100735.06;690230;28;67114;-51
2021/04/10 01:43:14;;;;;;;18.40;12.50;;;;;;;7.98;53.84;100732.38;688171;28;46412;-54
2021/04/10 01:43:38;;;;;;;18.77;12.80;;;;;;;7.98;53.84;100735.94;685379;28;105184;-56
2021/04/10 01:44:00;;;;;;;18.92;12.60;;;;;;;7.98;53.56;100737.75;690486;28;933;-52
2021/04/10 01:44:24;;;;;;;19.60;13.38;;;;;;;7.98;53.71;100737.75;689887;28;93211;-52
2021/04/10 01:44:47;;;;;;;19.20;12.85;;;;;;;7.99;53.72;100736.75;690793;28;80796;-50
2021/04/10 01:45:13;;;;;;;19.45;12.57;;;;;;;7.96;53.72;100737.09;693599;28;15082;-52
2021/04/10 01:45:35;;;;;;;18.27;12.13;;;;;;;7.91;53.98;100733.00;693561;28;78025;-53
2021/04/10 01:45:58;;;;;;;16.85;12.25;;;;;;;7.87;54.15;100734.34;691891;28;63371;-56
2021/04/10 01:46:25;;;;;;;18.13;12.82;;;;;;;7.88;54.19;100741.44;692567;28;13645;-53
2021/04/10 01:46:48;;;;;;;19.20;12.60;;;;;;;7.88;54.05;100741.44;691661;28;37968;-59
2021/04/10 01:47:11;;;;;;;17.77;12.20;;;;;;;7.87;54.19;100739.72;693427;28;867;-51
2021/04/10 01:47:33;;;;;;;16.83;11.70;;;;;;;7.87;53.91;100737.03;688825;28;84960;-51
2021/04/10 01:47:58;;;;;;;17.48;10.82;;;;;;;7.86;53.95;100735.34;694147;28;17728;-52
2021/04/10 01:48:21;;;;;;;15.25;10.65;;;;;;;7.84;53.96;100731.97;691574;28;85991;-57
2021/04/10 01:48:44;;;;;;;15.73;10.70;;;;;;;7.84;53.90;100741.91;691696;28;69458;-50
2021/04/10 01:49:07;;;;;;;15.98;11.13;;;;;;;7.84;53.82;100739.22;692148;28;68903;-58
2021/04/10 01:49:30;;;;;;;15.00;10.48;;;;;;;7.83;53.78;100742.91;690125;28;46431;-56
2021/04/10 01:49:53;;;;;;;15.98;10.75;;;;;;;7.81;53.91;100739.53;689497;28;14209;-54